createdAt,value
2018-03-17T00:02:03.988Z,46.30
2018-03-17T00:04:32.362Z,45.68
2018-03-17T00:07:00.739Z,46.60
2018-03-17T00:09:29.162Z,46.50
2018-03-17T00:11:57.517Z,46.42
2018-03-17T00:14:25.866Z,46.17
2018-03-17T00:16:55.030Z,46.24
2018-03-17T00:19:23.363Z,46.62
2018-03-17T00:21:52.481Z,46.61
2018-03-17T00:24:20.942Z,47.01
2018-03-17T00:26:50.139Z,46.61
2018-03-17T00:29:19.254Z,46.60
2018-03-17T00:31:47.633Z,46.81
2018-03-17T00:34:15.954Z,46.93
2018-03-17T00:36:45.111Z,46.15
2018-03-17T00:39:13.489Z,46.58
2018-03-17T00:41:41.842Z,46.97
2018-03-17T00:44:10.930Z,47.30
2018-03-17T00:46:40.212Z,46.63
2018-03-17T00:49:08.621Z,46.68
2018-03-17T00:51:37.044Z,46.32
2018-03-17T00:54:05.774Z,45.98
2018-03-17T00:56:34.261Z,46.46
2018-03-17T00:59:02.765Z,46.22
2018-03-17T01:01:31.243Z,46.85
2018-03-17T01:03:59.696Z,46.17
2018-03-17T01:06:28.091Z,46.34
2018-03-17T01:08:57.786Z,46.49
2018-03-17T01:11:26.169Z,46.03
2018-03-17T01:13:54.650Z,46.45
2018-03-17T01:16:23.142Z,46.68
2018-03-17T01:18:52.327Z,46.73
2018-03-17T01:21:20.806Z,47.16
2018-03-17T01:23:49.221Z,46.30
2018-03-17T01:26:17.665Z,45.91
2018-03-17T01:28:46.096Z,46.05
2018-03-17T01:31:14.615Z,46.15
2018-03-17T01:33:42.974Z,46.50
2018-03-17T01:36:11.372Z,45.58
2018-03-17T01:38:39.717Z,46.47
2018-03-17T01:41:08.100Z,47.12
2018-03-17T01:43:36.446Z,46.37
2018-03-17T01:46:04.791Z,46.73
2018-03-17T01:48:33.118Z,46.44
2018-03-17T01:51:01.476Z,46.72
2018-03-17T01:53:29.977Z,46.74
2018-03-17T01:55:58.305Z,46.46
2018-03-17T01:58:26.644Z,46.24
2018-03-17T02:00:55.029Z,46.52
2018-03-17T02:03:23.407Z,45.87
2018-03-17T02:05:51.744Z,46.20
2018-03-17T02:08:20.092Z,46.42
2018-03-17T02:10:48.436Z,46.90
2018-03-17T02:13:16.836Z,46.44
2018-03-17T02:15:45.392Z,45.61
2018-03-17T02:18:13.720Z,46.35
2018-03-17T02:20:42.057Z,47.07
2018-03-17T02:23:10.425Z,47.07
2018-03-17T02:25:39.554Z,46.86
2018-03-17T02:28:07.905Z,46.61
2018-03-17T02:30:37.050Z,46.88
2018-03-17T02:33:05.429Z,46.27
2018-03-17T02:35:33.752Z,47.32
2018-03-17T02:38:03.027Z,47.12
2018-03-17T02:40:31.329Z,47.08
2018-03-17T02:43:00.425Z,46.83
2018-03-17T02:45:29.550Z,47.04
2018-03-17T02:47:57.902Z,46.54
2018-03-17T02:50:26.254Z,46.38
2018-03-17T02:52:54.634Z,46.11
2018-03-17T02:55:22.962Z,46.12
2018-03-17T02:57:51.288Z,45.99
2018-03-17T03:00:19.725Z,46.50
2018-03-17T03:02:48.061Z,45.86
2018-03-17T03:05:16.391Z,46.29
2018-03-17T03:07:44.756Z,45.81
2018-03-17T03:10:13.122Z,46.08
2018-03-17T03:12:41.460Z,45.24
2018-03-17T03:15:09.841Z,45.71
2018-03-17T03:17:38.173Z,46.22
2018-03-17T03:20:06.481Z,46.15
2018-03-17T03:22:35.099Z,46.16
2018-03-17T03:25:03.482Z,46.13
2018-03-17T03:27:31.827Z,46.61
2018-03-17T03:30:00.202Z,46.13
2018-03-17T03:32:28.517Z,46.62
2018-03-17T03:34:56.831Z,46.84
2018-03-17T03:37:25.183Z,46.67
2018-03-17T03:39:53.494Z,46.32
2018-03-17T03:42:21.834Z,46.61
2018-03-17T03:44:51.174Z,46.92
2018-03-17T03:47:19.528Z,46.39
2018-03-17T03:49:47.913Z,46.84
2018-03-17T03:52:16.276Z,46.69
2018-03-17T03:54:45.376Z,46.79
2018-03-17T03:57:13.701Z,46.47
2018-03-17T03:59:42.052Z,46.82
2018-03-17T04:02:10.407Z,45.93
2018-03-17T04:04:39.530Z,46.14
2018-03-17T04:07:08.165Z,46.37
2018-03-17T04:09:36.504Z,46.35
2018-03-17T04:12:04.861Z,45.61
2018-03-17T04:14:33.225Z,45.91
2018-03-17T04:17:01.632Z,46.27
2018-03-17T04:19:30.721Z,46.03
2018-03-17T04:21:59.069Z,46.52
2018-03-17T04:24:27.431Z,45.70
2018-03-17T04:26:55.768Z,46.22
2018-03-17T04:29:24.315Z,46.31
2018-03-17T04:31:53.441Z,46.55
2018-03-17T04:34:21.755Z,46.69
2018-03-17T04:36:50.077Z,46.00
2018-03-17T04:39:19.200Z,45.70
2018-03-17T04:41:47.525Z,46.49
2018-03-17T04:44:15.903Z,46.06
2018-03-17T04:46:44.230Z,46.29
2018-03-17T04:49:12.552Z,46.26
2018-03-17T04:51:40.985Z,45.37
2018-03-17T04:54:09.411Z,46.29
2018-03-17T04:56:37.810Z,45.82
2018-03-17T04:59:06.693Z,46.71
2018-03-17T05:01:35.018Z,46.76
2018-03-17T05:04:03.358Z,46.81
2018-03-17T05:06:31.720Z,46.15
2018-03-17T05:09:00.078Z,46.41
2018-03-17T05:11:28.393Z,46.01
2018-03-17T05:13:56.938Z,45.94
2018-03-17T05:16:25.306Z,45.98
2018-03-17T05:18:53.661Z,45.75
2018-03-17T05:21:22.020Z,46.01
2018-03-17T05:23:50.337Z,46.27
2018-03-17T05:26:18.645Z,47.04
2018-03-17T05:28:46.999Z,46.14
2018-03-17T05:31:15.316Z,45.65
2018-03-17T05:33:43.658Z,46.67
2018-03-17T05:36:12.307Z,46.88
2018-03-17T05:38:41.429Z,47.11
2018-03-17T05:41:09.899Z,46.75
2018-03-17T05:43:38.290Z,47.18
2018-03-17T05:46:06.634Z,46.94
2018-03-17T05:48:34.940Z,47.07
2018-03-17T05:51:03.307Z,47.12
2018-03-17T05:53:31.726Z,48.06
2018-03-17T05:56:00.241Z,46.84
2018-03-17T05:58:29.403Z,46.75
2018-03-17T06:00:57.738Z,47.26
2018-03-17T06:03:26.093Z,46.82
2018-03-17T06:05:54.455Z,47.49
2018-03-17T06:08:22.767Z,47.08
2018-03-17T06:10:52.077Z,47.08
2018-03-17T06:13:20.425Z,47.25
2018-03-17T06:15:48.776Z,47.44
2018-03-17T06:18:17.143Z,47.16
2018-03-17T06:20:45.610Z,46.97
2018-03-17T06:23:13.905Z,47.70
2018-03-17T06:25:43.027Z,46.90
2018-03-17T06:28:11.374Z,47.16
2018-03-17T06:30:39.697Z,46.55
2018-03-17T06:33:08.070Z,47.06
2018-03-17T06:35:36.411Z,47.17
2018-03-17T06:38:04.733Z,46.93
2018-03-17T06:40:33.042Z,47.01
2018-03-17T06:43:02.132Z,47.47
2018-03-17T06:45:30.454Z,46.35
2018-03-17T06:47:58.793Z,46.92
2018-03-17T06:50:27.898Z,46.68
2018-03-17T06:52:56.997Z,45.78
2018-03-17T06:55:26.100Z,44.95
2018-03-17T06:57:55.388Z,45.06
2018-03-17T07:00:24.490Z,44.47
2018-03-17T07:02:53.568Z,44.08
2018-03-17T07:05:22.045Z,43.82
2018-03-17T07:07:50.371Z,41.31
2018-03-17T07:10:18.964Z,41.03
2018-03-17T07:12:47.332Z,40.91
2018-03-17T07:15:15.667Z,37.68
2018-03-17T07:17:43.981Z,35.17
2018-03-17T07:20:12.344Z,33.17
2018-03-17T07:22:41.431Z,31.58
2018-03-17T07:25:10.588Z,32.93
2018-03-17T07:27:39.049Z,33.12
2018-03-17T07:30:07.339Z,32.21
2018-03-17T07:32:35.679Z,30.75
2018-03-17T07:35:04.102Z,29.94
2018-03-17T07:37:32.476Z,28.48
2018-03-17T07:40:00.769Z,28.85
2018-03-17T07:42:29.097Z,28.60
2018-03-17T07:44:57.499Z,28.12
2018-03-17T07:47:25.809Z,28.12
2018-03-17T07:49:54.208Z,27.03
2018-03-17T07:52:22.561Z,26.76
2018-03-17T07:54:50.894Z,25.41
2018-03-17T07:57:19.278Z,25.01
2018-03-17T07:59:47.603Z,26.15
2018-03-17T08:02:15.896Z,25.29
2018-03-17T08:04:44.242Z,25.76
2018-03-17T08:07:12.573Z,24.72
2018-03-17T08:09:40.865Z,25.07
2018-03-17T08:12:09.388Z,25.87
2018-03-17T08:14:37.737Z,25.41
2018-03-17T08:17:06.091Z,24.13
2018-03-17T08:19:34.473Z,23.22
2018-03-17T08:22:02.794Z,23.53
2018-03-17T08:24:31.142Z,22.90
2018-03-17T08:26:59.529Z,24.71
2018-03-17T08:29:27.862Z,27.48
2018-03-17T08:31:56.228Z,27.67
2018-03-17T08:34:25.061Z,26.90
2018-03-17T08:36:53.410Z,28.56
2018-03-17T08:39:21.801Z,28.82
2018-03-17T08:41:50.152Z,28.44
2018-03-17T08:44:18.485Z,29.73
2018-03-17T08:46:46.884Z,29.27
2018-03-17T08:49:15.251Z,30.14
2018-03-17T08:51:43.664Z,27.48
2018-03-17T08:54:12.017Z,26.69
2018-03-17T08:56:40.533Z,26.31
2018-03-17T08:59:08.830Z,25.68
2018-03-17T09:01:37.142Z,27.06
2018-03-17T09:04:05.489Z,28.19
2018-03-17T09:06:34.577Z,27.49
2018-03-17T09:09:02.891Z,25.65
2018-03-17T09:11:31.241Z,24.85
2018-03-17T09:13:59.579Z,24.67
2018-03-17T09:16:27.901Z,25.66
2018-03-17T09:18:56.310Z,23.84
2018-03-17T09:21:24.643Z,22.68
2018-03-17T09:23:52.960Z,23.15
2018-03-17T09:26:21.314Z,22.03
2018-03-17T09:28:49.657Z,21.72
2018-03-17T09:31:17.971Z,21.96
2018-03-17T09:33:47.073Z,21.69
2018-03-17T09:36:15.463Z,22.14
2018-03-17T09:38:43.829Z,21.59
2018-03-17T09:41:13.244Z,22.51
2018-03-17T09:43:41.588Z,21.86
2018-03-17T09:46:09.915Z,21.29
2018-03-17T09:48:38.397Z,22.61
2018-03-17T09:51:06.774Z,24.53
2018-03-17T09:53:35.107Z,25.93
2018-03-17T09:56:03.485Z,24.67
2018-03-17T09:58:31.820Z,26.22
2018-03-17T10:01:00.136Z,25.87
2018-03-17T10:03:28.543Z,25.74
2018-03-17T10:05:56.856Z,26.33
2018-03-17T10:08:25.171Z,25.72
2018-03-17T10:10:53.584Z,25.15
2018-03-17T10:13:21.994Z,24.16
2018-03-17T10:15:50.318Z,24.26
2018-03-17T10:18:18.686Z,23.29
2018-03-17T10:20:47.023Z,22.81
2018-03-17T10:23:15.396Z,21.96
2018-03-17T10:25:43.823Z,22.70
2018-03-17T10:28:12.158Z,20.73
2018-03-17T10:30:40.494Z,18.66
2018-03-17T10:33:08.853Z,18.11
2018-03-17T10:35:37.190Z,18.40
2018-03-17T10:38:05.505Z,18.06
2018-03-17T10:40:33.856Z,18.60
2018-03-17T10:43:02.184Z,17.67
2018-03-17T10:45:30.621Z,16.24
2018-03-17T10:47:59.125Z,16.20
2018-03-17T10:50:27.508Z,15.96
2018-03-17T10:52:55.860Z,15.69
2018-03-17T10:55:24.265Z,18.05
2018-03-17T10:57:52.613Z,18.87
2018-03-17T11:00:26.494Z,20.40
2018-03-17T11:02:54.809Z,21.46
2018-03-17T11:05:23.124Z,21.77
2018-03-17T11:07:51.616Z,21.72
2018-03-17T11:10:19.944Z,21.81
2018-03-17T11:12:48.294Z,21.09
2018-03-17T11:15:16.801Z,20.87
2018-03-17T11:17:45.107Z,20.36
2018-03-17T11:20:13.438Z,21.30
2018-03-17T11:22:41.998Z,22.07
2018-03-17T11:25:10.313Z,22.50
2018-03-17T11:27:38.613Z,24.01
2018-03-17T11:30:07.490Z,24.05
2018-03-17T11:32:35.823Z,23.31
2018-03-17T11:35:04.272Z,22.56
2018-03-17T11:37:32.613Z,22.72
2018-03-17T11:40:01.711Z,21.18
2018-03-17T11:42:30.055Z,21.86
2018-03-17T11:44:58.412Z,20.40
2018-03-17T11:47:26.702Z,20.12
2018-03-17T11:49:55.034Z,22.15
2018-03-17T11:52:23.770Z,24.81
2018-03-17T11:54:52.065Z,25.25
2018-03-17T11:57:20.383Z,25.85
2018-03-17T11:59:48.792Z,26.76
2018-03-17T12:02:17.110Z,26.93
2018-03-17T12:04:45.453Z,26.47
2018-03-17T12:07:13.897Z,26.03
2018-03-17T12:09:42.212Z,25.91
2018-03-17T12:12:10.518Z,25.28
2018-03-17T12:14:39.364Z,24.45
2018-03-17T12:17:07.718Z,23.30
2018-03-17T12:19:36.090Z,23.35
2018-03-17T12:22:04.476Z,24.13
2018-03-17T12:24:32.798Z,22.78
2018-03-17T12:27:01.153Z,23.11
2018-03-17T12:29:29.536Z,23.01
2018-03-17T12:31:57.896Z,21.37
2018-03-17T12:34:26.220Z,19.73
2018-03-17T12:36:54.838Z,20.36
2018-03-17T12:39:23.176Z,19.19
2018-03-17T12:41:51.503Z,17.72
2018-03-17T12:44:19.895Z,17.64
2018-03-17T12:46:48.262Z,17.34
2018-03-17T12:49:16.594Z,17.65
2018-03-17T12:51:44.973Z,18.48
2018-03-17T12:54:13.319Z,20.11
2018-03-17T12:56:41.652Z,19.91
2018-03-17T12:59:10.244Z,19.90
2018-03-17T13:01:38.660Z,19.62
2018-03-17T13:04:07.022Z,20.00
2018-03-17T13:06:35.358Z,20.49
2018-03-17T13:09:03.688Z,22.82
2018-03-17T13:11:32.053Z,21.94
2018-03-17T13:14:00.394Z,21.89
2018-03-17T13:16:28.719Z,23.90
2018-03-17T13:18:57.046Z,23.67
2018-03-17T13:21:25.582Z,22.39
2018-03-17T13:23:53.902Z,22.20
2018-03-17T13:26:22.233Z,21.08
2018-03-17T13:28:50.646Z,20.26
2018-03-17T13:31:18.957Z,19.01
2018-03-17T13:33:47.291Z,18.39
2018-03-17T13:36:33.397Z,18.43
2018-03-17T13:39:01.757Z,18.82
2018-03-17T13:41:30.077Z,19.55
2018-03-17T13:43:58.438Z,21.21
2018-03-17T13:46:26.819Z,22.56
2018-03-17T13:48:55.142Z,23.83
2018-03-17T13:51:23.496Z,25.09
2018-03-17T13:53:51.819Z,25.54
2018-03-17T13:56:20.153Z,25.87
2018-03-17T13:58:48.651Z,25.63
2018-03-17T14:01:17.201Z,25.61
2018-03-17T14:03:45.538Z,25.58
2018-03-17T14:06:14.275Z,26.66
2018-03-17T14:08:42.678Z,27.07
2018-03-17T14:11:10.979Z,27.09
2018-03-17T14:13:40.120Z,26.74
2018-03-17T14:16:08.464Z,26.20
2018-03-17T14:18:37.588Z,24.55
2018-03-17T14:21:06.011Z,22.76
2018-03-17T14:23:34.367Z,22.62
2018-03-17T14:26:02.718Z,21.78
2018-03-17T14:28:31.094Z,21.39
2018-03-17T14:30:59.434Z,22.74
2018-03-17T14:33:28.554Z,21.43
2018-03-17T14:35:56.942Z,21.57
2018-03-17T14:38:25.293Z,21.57
2018-03-17T14:40:54.407Z,22.85
2018-03-17T14:43:23.205Z,24.45
2018-03-17T14:45:51.560Z,24.25
2018-03-17T14:48:19.945Z,24.36
2018-03-17T14:50:48.331Z,24.50
2018-03-17T14:53:16.655Z,24.40
2018-03-17T14:55:45.099Z,26.07
2018-03-17T14:58:13.470Z,25.75
2018-03-17T15:00:41.884Z,24.49
2018-03-17T15:03:10.663Z,24.55
2018-03-17T15:05:39.163Z,23.84
2018-03-17T15:08:07.510Z,23.84
2018-03-17T15:10:35.845Z,25.03
2018-03-17T15:13:04.201Z,25.47
2018-03-17T15:15:32.507Z,25.70
2018-03-17T15:18:01.602Z,24.43
2018-03-17T15:20:30.741Z,23.89
2018-03-17T15:22:59.077Z,22.62
2018-03-17T15:25:28.175Z,24.01
2018-03-17T15:27:56.724Z,24.43
2018-03-17T15:30:25.097Z,25.57
2018-03-17T15:32:53.446Z,23.83
2018-03-17T15:35:21.801Z,24.40
2018-03-17T15:37:50.931Z,23.82
2018-03-17T15:40:19.287Z,23.85
2018-03-17T15:42:47.681Z,24.97
2018-03-17T15:45:16.028Z,25.37
2018-03-17T15:47:45.175Z,26.38
2018-03-17T15:50:13.826Z,27.43
2018-03-17T15:52:42.925Z,27.52
2018-03-17T15:55:11.258Z,27.70
2018-03-17T15:57:39.627Z,28.38
2018-03-17T16:00:08.116Z,29.51
2018-03-17T16:02:36.436Z,32.08
2018-03-17T16:05:04.787Z,32.79
2018-03-17T16:07:33.159Z,31.18
2018-03-17T16:10:01.463Z,30.93
2018-03-17T16:12:29.941Z,32.34
2018-03-17T16:14:58.289Z,33.65
2018-03-17T16:17:26.643Z,33.77
2018-03-17T16:19:54.999Z,34.85
2018-03-17T16:22:23.332Z,35.34
2018-03-17T16:24:51.684Z,34.60
2018-03-17T16:27:20.043Z,34.49
2018-03-17T16:29:48.395Z,34.61
2018-03-17T16:32:17.536Z,34.89
2018-03-17T16:34:45.970Z,34.90
2018-03-17T16:37:14.324Z,35.23
2018-03-17T16:39:42.647Z,35.49
2018-03-17T16:42:11.791Z,36.14
2018-03-17T16:44:40.092Z,35.56
2018-03-17T16:47:08.448Z,35.82
2018-03-17T16:49:36.770Z,36.67
2018-03-17T16:52:05.132Z,36.51
2018-03-17T16:54:33.483Z,36.71
2018-03-17T16:57:02.129Z,37.32
2018-03-17T16:59:30.477Z,37.26
2018-03-17T17:01:58.819Z,38.97
2018-03-17T17:04:27.167Z,37.41
2018-03-17T17:06:55.505Z,37.40
2018-03-17T17:09:23.849Z,38.79
2018-03-17T17:11:52.967Z,38.17
2018-03-17T17:14:21.343Z,39.18
2018-03-17T17:16:49.687Z,39.11
2018-03-17T17:19:18.346Z,38.99
2018-03-17T17:21:47.434Z,38.62
2018-03-17T17:24:15.793Z,38.47
2018-03-17T17:26:44.143Z,39.11
2018-03-17T17:29:12.446Z,39.33
2018-03-17T17:31:40.775Z,40.32
2018-03-17T17:34:09.159Z,39.63
2018-03-17T17:36:37.481Z,39.70
2018-03-17T17:39:05.775Z,39.96
2018-03-17T17:41:34.315Z,40.54
2018-03-17T17:44:02.643Z,40.50
2018-03-17T17:46:30.986Z,40.40
2018-03-17T17:48:59.341Z,40.98
2018-03-17T17:51:28.437Z,40.43
2018-03-17T17:53:57.519Z,40.73
2018-03-17T17:56:25.888Z,41.66
2018-03-17T17:58:54.221Z,41.21
2018-03-17T18:01:22.530Z,41.58
2018-03-17T18:03:50.957Z,41.33
2018-03-17T18:06:19.357Z,41.67
2018-03-17T18:08:47.677Z,41.30
2018-03-17T18:11:16.785Z,42.11
2018-03-17T18:13:45.874Z,42.22
2018-03-17T18:16:14.971Z,43.03
2018-03-17T18:18:44.079Z,43.10
2018-03-17T18:21:12.408Z,42.81
2018-03-17T18:23:40.724Z,42.90
2018-03-17T18:26:09.277Z,42.46
2018-03-17T18:28:37.604Z,42.80
2018-03-17T18:31:05.906Z,42.98
2018-03-17T18:33:34.249Z,43.02
2018-03-17T18:36:02.566Z,43.14
2018-03-17T18:38:30.904Z,43.81
2018-03-17T18:41:00.088Z,43.74
2018-03-17T18:43:28.407Z,43.44
2018-03-17T18:45:56.744Z,43.83
2018-03-17T18:48:26.014Z,43.88
2018-03-17T18:50:54.832Z,43.79
2018-03-17T18:53:23.149Z,44.03
2018-03-17T18:55:51.497Z,43.93
2018-03-17T18:58:20.606Z,44.19
2018-03-17T19:00:48.931Z,43.92
2018-03-17T19:03:17.317Z,44.38
2018-03-17T19:05:45.663Z,44.46
2018-03-17T19:08:13.996Z,44.59
2018-03-17T19:10:43.287Z,44.57
2018-03-17T19:13:11.617Z,44.55
2018-03-17T19:15:39.988Z,44.73
2018-03-17T19:18:09.077Z,44.37
2018-03-17T19:20:37.385Z,44.84
2018-03-17T19:23:05.697Z,44.99
2018-03-17T19:25:34.068Z,45.01
2018-03-17T19:28:02.371Z,45.00
2018-03-17T19:30:31.516Z,45.10
2018-03-17T19:33:00.043Z,46.42
2018-03-17T19:35:28.382Z,45.54
2018-03-17T19:37:56.701Z,45.52
2018-03-17T19:40:25.072Z,45.27
2018-03-17T19:42:53.438Z,45.67
2018-03-17T19:45:21.894Z,45.46
2018-03-17T19:47:51.105Z,45.84
2018-03-17T19:50:19.472Z,45.85
2018-03-17T19:52:47.846Z,45.29
2018-03-17T19:55:16.256Z,45.43
2018-03-17T19:57:44.597Z,45.72
2018-03-17T20:00:12.903Z,45.72
2018-03-17T20:02:41.302Z,46.16
2018-03-17T20:05:09.807Z,45.82
2018-03-17T20:07:38.906Z,46.43
2018-03-17T20:10:07.319Z,46.34
2018-03-17T20:12:35.645Z,46.03
2018-03-17T20:15:03.968Z,46.45
2018-03-17T20:17:32.544Z,45.99
2018-03-17T20:20:00.874Z,45.70
2018-03-17T20:22:29.203Z,46.46
2018-03-17T20:24:57.572Z,46.33
2018-03-17T20:27:25.921Z,45.93
2018-03-17T20:29:54.259Z,45.99
2018-03-17T20:32:22.642Z,45.82
2018-03-17T20:34:50.942Z,45.22
2018-03-17T20:37:19.337Z,45.12
2018-03-17T20:39:47.857Z,45.47
2018-03-17T20:42:16.671Z,45.05
2018-03-17T20:44:45.015Z,45.35
2018-03-17T20:47:13.422Z,45.20
2018-03-17T20:49:41.822Z,45.53
2018-03-17T20:52:10.931Z,45.62
2018-03-17T20:54:39.302Z,45.07
2018-03-17T20:57:07.668Z,45.16
2018-03-17T20:59:36.035Z,44.87
2018-03-17T21:02:04.498Z,44.56
2018-03-17T21:04:33.639Z,44.91
2018-03-17T21:07:02.254Z,44.69
2018-03-17T21:09:31.458Z,45.08
2018-03-17T21:12:00.566Z,44.59
2018-03-17T21:14:29.670Z,44.84
2018-03-17T21:16:58.017Z,44.53
2018-03-17T21:19:26.374Z,44.64
2018-03-17T21:21:54.702Z,45.15
2018-03-17T21:24:23.227Z,44.58
2018-03-17T21:26:51.531Z,44.27
2018-03-17T21:29:20.660Z,43.61
2018-03-17T21:31:49.071Z,44.38
2018-03-17T21:34:17.427Z,43.73
2018-03-17T21:36:45.755Z,43.97
2018-03-17T21:39:14.119Z,44.18
2018-03-17T21:41:42.443Z,44.02
2018-03-17T21:44:11.508Z,44.17
2018-03-17T21:46:40.306Z,43.98
2018-03-17T21:49:08.614Z,44.13
2018-03-17T21:51:37.710Z,43.85
2018-03-17T21:54:07.387Z,43.63
2018-03-17T21:56:35.690Z,44.16
2018-03-17T21:59:04.789Z,43.83
2018-03-17T22:01:33.134Z,43.99
2018-03-17T22:04:01.492Z,44.01
2018-03-17T22:06:29.818Z,44.29
2018-03-17T22:08:59.290Z,44.00
2018-03-17T22:11:27.605Z,43.83
2018-03-17T22:13:56.006Z,44.48
2018-03-17T22:16:24.427Z,44.60
2018-03-17T22:18:52.773Z,43.80
2018-03-17T22:21:21.129Z,44.21
2018-03-17T22:23:49.503Z,43.66
2018-03-17T22:26:18.583Z,44.39
2018-03-17T22:28:46.911Z,44.25
2018-03-17T22:31:15.601Z,44.45
2018-03-17T22:33:43.927Z,44.06
2018-03-17T22:36:12.268Z,44.55
2018-03-17T22:38:40.608Z,44.15
2018-03-17T22:41:08.970Z,44.02
2018-03-17T22:43:38.106Z,44.02
2018-03-17T22:46:06.475Z,43.90
2018-03-17T22:48:34.840Z,44.68
2018-03-17T22:51:03.156Z,43.98
2018-03-17T22:53:31.785Z,43.89
2018-03-17T22:56:00.122Z,43.51
2018-03-17T22:58:29.200Z,43.98
2018-03-17T23:00:57.550Z,44.33
2018-03-17T23:03:26.677Z,44.95
2018-03-17T23:05:55.014Z,44.37
2018-03-17T23:08:24.415Z,44.82
2018-03-17T23:10:53.495Z,44.92
2018-03-17T23:13:21.825Z,45.66
2018-03-17T23:15:50.257Z,45.29
2018-03-17T23:18:18.598Z,44.69
2018-03-17T23:20:46.919Z,44.99
2018-03-17T23:23:15.317Z,44.07
2018-03-17T23:25:44.419Z,45.19
2018-03-17T23:28:13.485Z,45.33
2018-03-17T23:30:41.813Z,44.88
2018-03-17T23:33:10.144Z,44.45
2018-03-17T23:35:38.540Z,44.77
2018-03-17T23:38:06.898Z,44.11
2018-03-17T23:40:35.222Z,43.57
2018-03-17T23:43:03.552Z,43.79
2018-03-17T23:45:32.167Z,44.10
2018-03-17T23:48:00.698Z,43.40
2018-03-17T23:50:29.064Z,44.31
2018-03-17T23:52:58.357Z,44.44
2018-03-17T23:55:26.893Z,44.42
2018-03-17T23:57:55.241Z,43.89
